Genevia, Arkansas
Current Conditions -  °F | °C
As of 9:53 AM on Saturday 25 Oct 2014 (Local Time) from KLIT Reporting Station
Clear Clear  
Wind Chill: 69°   Ceiling: Unl
Heat Index: 69°   Visibility: 10mi
Dew Point: 59°   Wind: 10mph
Humidity: 70%   Direction: 240°WSW
Pressure: 30.13"   Gusts: NA
Location:  34.7066°N, 92.2297°W
Report Text: KLIT 251453Z 24009KT 10SM CLR 21/15 A3013 RMK AO2 SLP202 T02060150 51005
Loading
Personal Weather Stations






























Interactive Weather Map
Tropical Storm Tracking
New forecast layout! Learn more

10-Day Weather Forecast

Advertisements
Track Severe Weather on mobile